createdAt,value
2022-11-08T00:02:03.373Z,10.80
2022-11-08T00:04:30.089Z,10.84
2022-11-08T00:07:15.064Z,10.80
2022-11-08T00:09:59.646Z,10.85
2022-11-08T00:12:44.427Z,10.85
2022-11-08T00:15:10.965Z,10.97
2022-11-08T00:17:37.472Z,10.99
2022-11-08T00:20:05.422Z,10.99
2022-11-08T00:22:31.969Z,10.87
2022-11-08T00:24:58.852Z,10.86
2022-11-08T00:27:26.577Z,10.94
2022-11-08T00:29:53.187Z,10.87
2022-11-08T00:32:21.916Z,10.88
2022-11-08T00:34:48.713Z,10.86
2022-11-08T00:37:16.825Z,10.86
2022-11-08T00:39:43.367Z,10.91
2022-11-08T00:42:10.538Z,10.90
2022-11-08T00:44:36.958Z,10.97
2022-11-08T00:47:03.969Z,10.95
2022-11-08T00:49:30.670Z,10.87
2022-11-08T00:51:57.104Z,10.83
2022-11-08T00:54:23.939Z,10.78
2022-11-08T00:56:50.582Z,10.81
2022-11-08T00:59:19.175Z,10.83
2022-11-08T01:01:46.975Z,10.75
2022-11-08T01:04:15.551Z,10.76
2022-11-08T01:06:42.006Z,10.75
2022-11-08T01:09:08.601Z,10.66
2022-11-08T01:11:35.641Z,10.71
2022-11-08T01:14:02.273Z,10.64
2022-11-08T01:16:32.559Z,10.60
2022-11-08T01:18:59.793Z,10.58
2022-11-08T01:21:27.467Z,10.51
2022-11-08T01:23:54.461Z,10.57
2022-11-08T01:26:23.696Z,10.63
2022-11-08T01:28:50.162Z,10.60
2022-11-08T01:31:19.822Z,10.55
2022-11-08T01:33:51.213Z,10.61
2022-11-08T01:36:20.960Z,10.51
2022-11-08T01:38:47.918Z,10.53
2022-11-08T01:41:16.146Z,10.55
2022-11-08T01:43:50.906Z,10.47
2022-11-08T01:46:20.056Z,10.46
2022-11-08T01:48:57.700Z,10.53
2022-11-08T01:51:33.406Z,10.53
2022-11-08T01:54:05.000Z,10.48
2022-11-08T01:56:31.786Z,10.48
2022-11-08T01:59:02.405Z,10.53
2022-11-08T02:01:28.941Z,10.52
2022-11-08T02:03:55.675Z,10.52
2022-11-08T02:06:22.143Z,10.59
2022-11-08T02:08:48.733Z,10.53
2022-11-08T02:11:17.984Z,10.57
2022-11-08T02:13:44.482Z,10.57
2022-11-08T02:16:13.957Z,10.56
2022-11-08T02:18:42.520Z,10.61
2022-11-08T02:21:30.096Z,10.62
2022-11-08T02:24:00.000Z,10.51
2022-11-08T02:26:32.392Z,10.61
2022-11-08T02:28:59.152Z,10.53
2022-11-08T02:31:25.555Z,10.54
2022-11-08T02:33:52.063Z,10.65
2022-11-08T02:36:23.167Z,10.62
2022-11-08T02:38:54.349Z,10.48
2022-11-08T02:41:21.085Z,10.49
2022-11-08T02:43:47.496Z,10.49
2022-11-08T02:46:14.153Z,10.54
2022-11-08T02:48:40.639Z,10.43
2022-11-08T02:51:07.034Z,10.46
2022-11-08T02:53:33.464Z,10.47
2022-11-08T02:55:59.880Z,10.51
2022-11-08T02:58:27.862Z,10.56
2022-11-08T03:00:54.513Z,10.50
2022-11-08T03:03:20.950Z,10.52
2022-11-08T03:05:47.545Z,10.53
2022-11-08T03:08:15.515Z,10.51
2022-11-08T03:10:42.124Z,10.50
2022-11-08T03:13:08.830Z,10.50
2022-11-08T03:15:35.269Z,10.52
2022-11-08T03:18:02.493Z,10.54
2022-11-08T03:20:32.706Z,10.55
2022-11-08T03:23:06.418Z,10.62
2022-11-08T03:25:33.213Z,10.51
2022-11-08T03:28:06.574Z,10.53
2022-11-08T03:30:34.158Z,10.63
2022-11-08T03:33:00.792Z,10.65
2022-11-08T03:35:27.542Z,10.62
2022-11-08T03:37:56.766Z,10.65
2022-11-08T03:40:24.031Z,10.61
2022-11-08T03:42:50.660Z,10.62
2022-11-08T03:45:17.453Z,10.71
2022-11-08T03:47:45.550Z,10.62
2022-11-08T03:50:14.359Z,10.58
2022-11-08T03:52:59.607Z,10.63
2022-11-08T03:55:28.232Z,10.66
2022-11-08T03:57:54.948Z,10.66
2022-11-08T04:00:24.868Z,10.62
2022-11-08T04:02:52.132Z,10.65
2022-11-08T04:05:19.151Z,10.60
2022-11-08T04:07:45.612Z,10.56
2022-11-08T04:10:12.804Z,10.59
2022-11-08T04:13:01.379Z,10.49
2022-11-08T04:15:29.804Z,10.51
2022-11-08T04:18:15.909Z,10.53
2022-11-08T04:21:06.608Z,10.47
2022-11-08T04:23:35.776Z,10.45
2022-11-08T04:26:06.166Z,10.45
2022-11-08T04:28:35.243Z,10.47
2022-11-08T04:31:05.304Z,10.46
2022-11-08T04:33:32.273Z,10.47
2022-11-08T04:36:04.468Z,10.33
2022-11-08T04:38:31.831Z,10.30
2022-11-08T04:41:12.315Z,10.33
2022-11-08T04:43:38.984Z,10.31
2022-11-08T04:46:11.716Z,10.31
2022-11-08T04:48:38.456Z,10.21
2022-11-08T04:51:12.510Z,10.16
2022-11-08T04:53:39.382Z,10.23
2022-11-08T04:56:08.462Z,10.20
2022-11-08T04:58:37.718Z,10.13
2022-11-08T05:01:06.306Z,9.98
2022-11-08T05:03:33.329Z,9.91
2022-11-08T05:06:11.410Z,9.94
2022-11-08T05:08:38.332Z,9.92
2022-11-08T05:11:10.736Z,9.70
2022-11-08T05:13:37.441Z,9.69
2022-11-08T05:16:06.815Z,9.60
2022-11-08T05:18:34.131Z,9.63
2022-11-08T05:21:20.366Z,9.64
2022-11-08T05:23:48.925Z,9.68
2022-11-08T05:26:16.689Z,9.66
2022-11-08T05:28:43.398Z,9.68
2022-11-08T05:31:10.069Z,9.60
2022-11-08T05:33:36.926Z,9.58
2022-11-08T05:36:06.217Z,9.65
2022-11-08T05:38:33.616Z,9.56
2022-11-08T05:41:17.043Z,9.65
2022-11-08T05:43:46.282Z,9.52
2022-11-08T05:46:12.809Z,9.52
2022-11-08T05:48:39.573Z,9.47
2022-11-08T05:51:06.144Z,9.56
2022-11-08T05:53:32.634Z,9.53
2022-11-08T05:56:02.819Z,9.53
2022-11-08T05:58:30.937Z,9.47
2022-11-08T06:01:23.508Z,9.46
2022-11-08T06:03:50.180Z,9.37
2022-11-08T06:06:19.879Z,9.40
2022-11-08T06:08:50.265Z,9.26
2022-11-08T06:11:21.610Z,9.25
2022-11-08T06:13:48.773Z,9.21
2022-11-08T06:16:17.288Z,9.13
2022-11-08T06:18:43.910Z,8.96
2022-11-08T06:21:12.672Z,8.93
2022-11-08T06:23:39.429Z,8.94
2022-11-08T06:26:05.885Z,8.85
2022-11-08T06:28:32.422Z,8.89
2022-11-08T06:31:00.166Z,8.88
2022-11-08T06:33:26.823Z,8.82
2022-11-08T06:35:53.570Z,8.80
2022-11-08T06:38:20.123Z,8.71
2022-11-08T06:40:46.648Z,8.67
2022-11-08T06:43:19.085Z,8.59
2022-11-08T06:45:46.379Z,8.69
2022-11-08T06:48:12.782Z,8.71
2022-11-08T06:50:39.289Z,8.70
2022-11-08T06:53:08.495Z,8.68
2022-11-08T06:55:35.883Z,8.73
2022-11-08T06:58:03.331Z,8.70
2022-11-08T07:00:30.429Z,8.66
2022-11-08T07:02:59.528Z,8.66
2022-11-08T07:05:27.188Z,8.65
2022-11-08T07:07:53.932Z,8.63
2022-11-08T07:10:22.053Z,8.64
2022-11-08T07:12:50.841Z,8.70
2022-11-08T07:15:17.299Z,8.65
2022-11-08T07:17:43.727Z,8.72
2022-11-08T07:20:10.705Z,8.79
2022-11-08T07:22:37.134Z,8.84
2022-11-08T07:25:03.786Z,8.90
2022-11-08T07:27:30.219Z,8.94
2022-11-08T07:29:56.613Z,9.02
2022-11-08T07:32:23.065Z,9.04
2022-11-08T07:34:49.495Z,9.15
2022-11-08T07:37:15.888Z,9.19
2022-11-08T07:39:42.313Z,9.28
2022-11-08T07:42:08.742Z,9.29
2022-11-08T07:44:35.202Z,9.29
2022-11-08T07:47:01.639Z,9.35
2022-11-08T07:49:28.065Z,9.40
2022-11-08T07:51:54.480Z,9.47
2022-11-08T07:54:20.883Z,9.51
2022-11-08T07:56:47.272Z,9.50
2022-11-08T07:59:13.667Z,9.49
2022-11-08T08:01:40.170Z,9.50
2022-11-08T08:04:06.681Z,9.57
2022-11-08T08:06:33.088Z,9.59
2022-11-08T08:08:59.465Z,9.61
2022-11-08T08:11:30.864Z,9.65
2022-11-08T08:13:59.933Z,9.71
2022-11-08T08:16:26.351Z,9.74
2022-11-08T08:18:56.369Z,9.76
2022-11-08T08:21:23.649Z,9.83
2022-11-08T08:23:50.107Z,9.88
2022-11-08T08:26:16.511Z,9.92
2022-11-08T08:28:42.971Z,9.99
2022-11-08T08:31:09.436Z,10.08
2022-11-08T08:33:37.318Z,10.11
2022-11-08T08:36:04.227Z,10.10
2022-11-08T08:38:32.580Z,10.17
2022-11-08T08:40:59.502Z,10.18
2022-11-08T08:43:27.670Z,10.23
2022-11-08T08:45:54.677Z,10.24
2022-11-08T08:48:21.161Z,10.30
2022-11-08T08:50:48.170Z,10.32
2022-11-08T08:53:14.767Z,10.39
2022-11-08T08:55:42.410Z,10.41
2022-11-08T08:58:10.841Z,10.49
2022-11-08T09:03:24.118Z,10.51
2022-11-08T09:05:50.667Z,10.57
2022-11-08T09:08:17.136Z,10.57
2022-11-08T09:10:43.568Z,10.61
2022-11-08T09:13:10.410Z,10.65
2022-11-08T09:15:39.190Z,10.68
2022-11-08T09:18:05.864Z,10.69
2022-11-08T09:20:32.424Z,10.71
2022-11-08T09:23:03.095Z,10.74
2022-11-08T09:25:29.752Z,10.74
2022-11-08T09:27:56.266Z,10.75
2022-11-08T09:30:23.002Z,10.78
2022-11-08T09:33:04.978Z,10.77
2022-11-08T09:35:31.363Z,10.89
2022-11-08T09:37:58.610Z,10.87
2022-11-08T09:40:38.086Z,10.91
2022-11-08T09:43:13.583Z,10.91
2022-11-08T09:45:46.849Z,10.99
2022-11-08T09:48:36.816Z,11.01
2022-11-08T09:51:20.761Z,11.08
2022-11-08T09:53:59.548Z,11.09
2022-11-08T09:56:35.548Z,11.11
2022-11-08T09:59:46.353Z,11.19
2022-11-08T10:02:18.571Z,11.28
2022-11-08T10:04:52.081Z,11.30
2022-11-08T10:07:31.937Z,11.36
2022-11-08T10:10:24.483Z,11.39
2022-11-08T10:13:12.302Z,11.45
2022-11-08T10:16:03.642Z,11.47
2022-11-08T10:18:36.165Z,11.49
2022-11-08T10:21:14.729Z,11.52
2022-11-08T10:24:02.068Z,11.59
2022-11-08T10:26:39.582Z,11.56
2022-11-08T10:29:16.212Z,11.53
2022-11-08T10:31:43.947Z,11.57
2022-11-08T10:34:16.479Z,11.58
2022-11-08T10:36:49.150Z,11.62
2022-11-08T10:39:23.377Z,11.63
2022-11-08T10:41:58.241Z,11.62
2022-11-08T10:44:26.607Z,11.69
2022-11-08T10:46:55.998Z,11.75
2022-11-08T10:49:31.358Z,11.76
2022-11-08T10:52:12.861Z,11.79
2022-11-08T10:54:39.227Z,11.80
2022-11-08T10:57:05.640Z,11.79
2022-11-08T10:59:32.810Z,11.81
2022-11-08T11:02:00.887Z,11.82
2022-11-08T11:04:32.834Z,11.89
2022-11-08T11:07:04.296Z,11.99
2022-11-08T11:09:30.727Z,11.97
2022-11-08T11:12:08.229Z,12.02
2022-11-08T11:14:34.792Z,12.01
2022-11-08T11:17:14.652Z,12.07
2022-11-08T11:20:03.921Z,12.17
2022-11-08T11:22:33.703Z,12.20
2022-11-08T11:25:18.976Z,12.22
2022-11-08T11:27:53.880Z,12.24
2022-11-08T11:30:28.738Z,12.32
2022-11-08T11:33:21.491Z,12.37
2022-11-08T11:35:51.956Z,12.39
2022-11-08T11:38:28.036Z,12.36
2022-11-08T11:40:59.973Z,12.38
2022-11-08T11:43:30.841Z,12.38
2022-11-08T11:46:19.258Z,12.39
2022-11-08T11:48:50.279Z,12.37
2022-11-08T11:51:16.743Z,12.39
2022-11-08T11:53:48.486Z,12.43
2022-11-08T11:56:27.309Z,12.39
2022-11-08T11:59:31.463Z,12.46
2022-11-08T12:02:07.048Z,12.48
2022-11-08T12:05:06.966Z,12.59
2022-11-08T12:07:41.975Z,12.60
2022-11-08T12:10:26.352Z,12.61
2022-11-08T12:13:18.348Z,12.63
2022-11-08T12:15:47.876Z,12.74
2022-11-08T12:18:51.775Z,12.74
2022-11-08T12:21:26.096Z,12.73
2022-11-08T12:24:12.068Z,12.72
2022-11-08T12:26:38.472Z,12.75
2022-11-08T12:29:19.001Z,12.78
2022-11-08T12:31:58.715Z,12.78
2022-11-08T12:34:46.376Z,12.82
2022-11-08T12:37:49.882Z,12.89
2022-11-08T12:40:43.012Z,12.84
2022-11-08T12:43:21.724Z,12.80
2022-11-08T12:46:04.835Z,12.78
2022-11-08T12:49:00.487Z,12.80
2022-11-08T12:52:04.397Z,12.78
2022-11-08T12:54:40.443Z,12.81
2022-11-08T12:57:14.278Z,12.89
2022-11-08T12:59:56.416Z,12.99
2022-11-08T13:02:33.870Z,12.93
2022-11-08T13:05:03.176Z,12.98
2022-11-08T13:07:39.389Z,12.98
2022-11-08T13:10:27.347Z,12.99
2022-11-08T13:13:24.497Z,12.98
2022-11-08T13:16:21.458Z,13.05
2022-11-08T13:18:53.398Z,13.08
2022-11-08T13:21:40.973Z,13.09
2022-11-08T13:24:30.837Z,13.11
2022-11-08T13:27:31.791Z,13.03
2022-11-08T13:30:24.853Z,13.02
2022-11-08T13:33:12.596Z,13.07
2022-11-08T13:35:45.145Z,13.07
2022-11-08T13:38:40.267Z,13.12
2022-11-08T13:41:19.318Z,13.14
2022-11-08T13:43:47.729Z,13.10
2022-11-08T13:46:20.195Z,13.08
2022-11-08T13:48:58.883Z,13.20
2022-11-08T13:51:29.110Z,13.19
2022-11-08T13:53:57.973Z,13.12
2022-11-08T13:56:44.721Z,13.15
2022-11-08T13:59:43.629Z,13.16
2022-11-08T14:02:30.105Z,13.19
2022-11-08T14:05:18.385Z,13.16
2022-11-08T14:07:53.807Z,13.21
2022-11-08T14:10:29.483Z,13.19
2022-11-08T14:12:55.909Z,13.16
2022-11-08T14:15:27.668Z,13.15
2022-11-08T14:18:26.273Z,13.15
2022-11-08T14:20:54.736Z,13.10
2022-11-08T14:23:36.568Z,13.09
2022-11-08T14:26:10.741Z,13.06
2022-11-08T14:28:43.363Z,13.02
2022-11-08T14:31:33.403Z,12.97
2022-11-08T14:34:01.557Z,12.96
2022-11-08T14:36:31.057Z,12.93
2022-11-08T14:39:03.262Z,12.88
2022-11-08T14:41:31.767Z,12.85
2022-11-08T14:44:00.540Z,12.82
2022-11-08T14:46:39.888Z,12.81
2022-11-08T14:49:18.488Z,12.77
2022-11-08T14:51:46.031Z,12.75
2022-11-08T14:54:20.774Z,12.75
2022-11-08T14:56:48.173Z,12.73
2022-11-08T14:59:14.844Z,12.71
2022-11-08T15:01:45.897Z,12.65
2022-11-08T15:04:16.418Z,12.65
2022-11-08T15:06:45.307Z,12.61
2022-11-08T15:09:26.936Z,12.58
2022-11-08T15:11:56.647Z,12.56
2022-11-08T15:14:25.988Z,12.51
2022-11-08T15:16:58.641Z,12.50
2022-11-08T15:19:32.121Z,12.45
2022-11-08T15:22:00.333Z,12.43
2022-11-08T15:24:36.255Z,12.36
2022-11-08T15:27:05.620Z,12.33
2022-11-08T15:29:59.679Z,12.33
2022-11-08T15:32:26.991Z,12.26
2022-11-08T15:34:57.279Z,12.21
2022-11-08T15:37:37.352Z,12.12
2022-11-08T15:40:18.764Z,12.12
2022-11-08T15:42:47.342Z,12.05
2022-11-08T15:45:13.712Z,12.05
2022-11-08T15:47:43.215Z,12.01
2022-11-08T15:50:30.377Z,11.92
2022-11-08T15:52:59.242Z,11.87
2022-11-08T15:55:30.343Z,11.90
2022-11-08T15:57:58.844Z,11.90
2022-11-08T16:00:28.412Z,11.81
2022-11-08T16:02:56.000Z,11.82
2022-11-08T16:05:33.917Z,11.70
2022-11-08T16:08:00.430Z,11.72
2022-11-08T16:10:34.772Z,11.72
2022-11-08T16:13:02.848Z,11.66
2022-11-08T16:15:34.231Z,11.69
2022-11-08T16:18:01.914Z,11.63
2022-11-08T16:20:30.326Z,11.65
2022-11-08T16:23:02.401Z,11.65
2022-11-08T16:25:31.232Z,11.61
2022-11-08T16:28:08.319Z,11.59
2022-11-08T16:30:35.410Z,11.62
2022-11-08T16:33:06.036Z,11.58
2022-11-08T16:35:32.482Z,11.56
2022-11-08T16:37:58.902Z,11.56
2022-11-08T16:40:25.782Z,11.56
2022-11-08T16:42:53.180Z,11.54
2022-11-08T16:45:37.277Z,11.49
2022-11-08T16:48:14.841Z,11.49
2022-11-08T16:50:42.062Z,11.45
2022-11-08T16:53:16.990Z,11.44
2022-11-08T16:55:43.468Z,11.48
2022-11-08T16:58:09.888Z,11.47
2022-11-08T17:00:38.255Z,11.47
2022-11-08T17:03:05.306Z,11.49
2022-11-08T17:05:32.740Z,11.41
2022-11-08T17:07:59.195Z,11.47
2022-11-08T17:10:28.626Z,11.36
2022-11-08T17:12:55.244Z,11.37
2022-11-08T17:15:24.948Z,11.38
2022-11-08T17:17:53.974Z,11.31
2022-11-08T17:20:21.461Z,11.36
2022-11-08T17:22:48.788Z,11.39
2022-11-08T17:25:18.628Z,11.39
2022-11-08T17:27:45.699Z,11.36
2022-11-08T17:30:14.722Z,11.30
2022-11-08T17:32:41.211Z,11.30
2022-11-08T17:35:09.682Z,11.25
2022-11-08T17:37:36.495Z,11.18
2022-11-08T17:40:04.770Z,11.09
2022-11-08T17:42:35.692Z,11.13
2022-11-08T17:45:04.041Z,11.06
2022-11-08T17:47:30.562Z,10.92
2022-11-08T17:49:57.017Z,10.95
2022-11-08T17:52:23.685Z,11.00
2022-11-08T17:54:52.894Z,10.96
2022-11-08T17:57:19.753Z,10.97
2022-11-08T17:59:48.143Z,10.88
2022-11-08T18:02:15.377Z,10.79
2022-11-08T18:04:42.196Z,10.83
2022-11-08T18:07:08.912Z,10.83
2022-11-08T18:09:35.906Z,10.78
2022-11-08T18:12:02.385Z,10.74
2022-11-08T18:14:29.138Z,10.70
2022-11-08T18:16:56.615Z,10.72
2022-11-08T18:19:23.749Z,10.64
2022-11-08T18:21:50.204Z,10.66
2022-11-08T18:24:17.116Z,10.64
2022-11-08T18:26:43.608Z,10.60
2022-11-08T18:29:10.334Z,10.48
2022-11-08T18:31:37.551Z,10.51
2022-11-08T18:34:04.192Z,10.51
2022-11-08T18:36:31.463Z,10.47
2022-11-08T18:39:02.593Z,10.36
2022-11-08T18:41:32.173Z,10.37
2022-11-08T18:44:00.687Z,10.36
2022-11-08T18:46:32.642Z,10.37
2022-11-08T18:48:59.694Z,10.30
2022-11-08T18:51:26.422Z,10.32
2022-11-08T18:53:53.510Z,10.29
2022-11-08T18:56:20.552Z,10.25
2022-11-08T18:58:47.685Z,10.29
2022-11-08T19:01:14.898Z,10.28
2022-11-08T19:03:42.171Z,10.28
2022-11-08T19:06:09.251Z,10.18
2022-11-08T19:08:36.944Z,10.17
2022-11-08T19:11:09.108Z,10.17
2022-11-08T19:13:37.950Z,10.10
2022-11-08T19:16:12.913Z,10.16
2022-11-08T19:18:40.415Z,10.16
2022-11-08T19:21:10.225Z,10.23
2022-11-08T19:23:38.342Z,10.23
2022-11-08T19:26:16.935Z,10.22
2022-11-08T19:28:45.538Z,10.25
2022-11-08T19:31:20.459Z,10.28
2022-11-08T19:33:48.459Z,10.19
2022-11-08T19:36:17.704Z,10.27
2022-11-08T19:38:44.687Z,10.31
2022-11-08T19:41:18.338Z,10.34
2022-11-08T19:43:46.287Z,10.30
2022-11-08T19:46:17.818Z,10.31
2022-11-08T19:48:46.248Z,10.39
2022-11-08T19:51:16.076Z,10.37
2022-11-08T19:53:43.366Z,10.52
2022-11-08T19:56:13.793Z,10.54
2022-11-08T19:58:40.294Z,10.53
2022-11-08T20:01:08.083Z,10.52
2022-11-08T20:03:34.698Z,10.60
2022-11-08T20:06:01.113Z,10.64
2022-11-08T20:08:28.771Z,10.64
2022-11-08T20:10:55.289Z,10.66
2022-11-08T20:13:21.744Z,10.62
2022-11-08T20:15:48.414Z,10.70
2022-11-08T20:18:15.344Z,10.70
2022-11-08T20:20:43.632Z,10.74
2022-11-08T20:23:16.337Z,10.75
2022-11-08T20:25:42.865Z,10.68
2022-11-08T20:28:09.485Z,10.75
2022-11-08T20:30:35.958Z,10.77
2022-11-08T20:33:02.410Z,10.77
2022-11-08T20:35:28.929Z,10.79
2022-11-08T20:37:58.314Z,10.82
2022-11-08T20:40:24.754Z,10.83
2022-11-08T20:42:51.145Z,10.86
2022-11-08T20:45:17.547Z,10.88
2022-11-08T20:47:43.955Z,10.89
2022-11-08T20:50:10.985Z,10.90
2022-11-08T20:52:37.470Z,10.90
2022-11-08T20:55:04.058Z,10.91
2022-11-08T20:57:30.507Z,10.89
2022-11-08T20:59:57.243Z,10.90
2022-11-08T21:02:23.763Z,10.96
2022-11-08T21:04:51.428Z,10.96
2022-11-08T21:10:27.608Z,10.94
2022-11-08T21:12:50.984Z,10.96
2022-11-08T21:15:18.995Z,10.98
2022-11-08T21:17:48.255Z,10.99
2022-11-08T21:20:14.835Z,11.02
2022-11-08T21:22:41.248Z,11.03
2022-11-08T21:25:08.079Z,11.05
2022-11-08T21:27:37.531Z,11.03
2022-11-08T21:30:04.331Z,11.07
2022-11-08T21:32:30.744Z,11.12
2022-11-08T21:34:57.149Z,11.15
2022-11-08T21:37:23.700Z,11.16
2022-11-08T21:39:50.226Z,11.19
2022-11-08T21:42:16.659Z,11.22
2022-11-08T21:44:43.109Z,11.23
2022-11-08T21:47:09.807Z,11.22
2022-11-08T21:49:36.330Z,11.21
2022-11-08T21:52:03.622Z,11.21
2022-11-08T21:54:30.210Z,11.23
2022-11-08T21:56:56.674Z,11.13
2022-11-08T21:59:23.115Z,11.08
2022-11-08T22:01:49.606Z,11.09
2022-11-08T22:04:16.101Z,11.13
2022-11-08T22:06:47.298Z,11.21
2022-11-08T22:09:14.258Z,11.16
2022-11-08T22:11:41.835Z,11.14
2022-11-08T22:14:08.431Z,11.02
2022-11-08T22:16:34.912Z,10.99
2022-11-08T22:19:08.964Z,10.95
2022-11-08T22:21:39.604Z,10.88
2022-11-08T22:24:20.096Z,10.87
2022-11-08T22:26:47.936Z,10.84
2022-11-08T22:29:16.105Z,10.84
2022-11-08T22:31:43.384Z,10.80
2022-11-08T22:34:10.918Z,10.80
2022-11-08T22:36:44.428Z,10.74
2022-11-08T22:39:13.676Z,10.66
2022-11-08T22:41:40.266Z,10.77
2022-11-08T22:44:11.743Z,10.73
2022-11-08T22:46:39.237Z,10.79
2022-11-08T22:49:05.855Z,10.75
2022-11-08T22:51:32.418Z,10.79
2022-11-08T22:53:58.950Z,10.77
2022-11-08T22:56:25.387Z,10.67
2022-11-08T22:58:51.771Z,10.60
2022-11-08T23:01:18.361Z,10.64
2022-11-08T23:03:46.343Z,10.63
2022-11-08T23:06:13.689Z,10.56
2022-11-08T23:08:40.255Z,10.57
2022-11-08T23:11:25.648Z,10.57
2022-11-08T23:14:10.527Z,10.57
2022-11-08T23:16:43.194Z,10.47
2022-11-08T23:19:29.669Z,10.51
2022-11-08T23:22:15.333Z,10.38
2022-11-08T23:24:42.992Z,10.38
2022-11-08T23:27:29.430Z,10.25
2022-11-08T23:30:14.287Z,10.21
2022-11-08T23:32:46.523Z,10.17
2022-11-08T23:35:13.858Z,10.20
2022-11-08T23:37:40.565Z,10.21
2022-11-08T23:40:27.631Z,10.20
2022-11-08T23:43:31.989Z,10.20
2022-11-08T23:46:11.253Z,10.30
2022-11-08T23:48:39.603Z,10.32
2022-11-08T23:51:06.948Z,10.37
2022-11-08T23:53:36.703Z,10.36
2022-11-08T23:56:03.892Z,10.34
2022-11-08T23:58:30.310Z,10.33
